Smithville, TX (78957)

6:40 PM CDT on April 18, 2015 (GMT -0500)
Briggs Ranchito 78957 | | Change Station
CLOSE
Current Station
Personal Weather Station
Location: Smithville, TX
Elevation: 299 ft
Nearby Weather Stations

Elev 299 ft 30.02 °N, 97.17 °W | Updated 20 seconds ago

Overcast
Overcast
75.4 °F
Feels Like 76 °F
N
3.4
Wind Variable Wind from SE
Gusts 4.7 mph

Today
High -- | Low -- °F
--% Chance of Precip.
Yesterday
High -- | Low -- °F
Precip. -- in
6:58 AM 7:57 PM
New Moon, 0% visible
Pressure 29.80 in
Visibility 10.0 miles
Clouds Scattered Clouds 2100 ft
Scattered Clouds 2900 ft
Mostly Cloudy 5000 ft
Heat Index 76 °F
Dew Point 68 °F
Humidity 77%
Rainfall 0.00 in
Snow Depth Not available.
UV 1 out of 12
Pollen 5.00 out of 12
Air Quality Not available.
Flu Activity Local Activity
METAR KGYB 182315Z AUTO 17004KT 10SM SCT021 SCT029 BKN050 24/19 A2980 RMK AO2 T02350192

More Conditions Fewer Conditions

Pressure 29.80 in
Visibility 10.0 miles
Clouds Scattered Clouds 2100 ft
Scattered Clouds 2900 ft
Mostly Cloudy 5000 ft
Heat Index 76 °F
Dew Point 68 °F
Humidity 77%
Rainfall 0.00 in
Snow Depth Not available.
UV 1 out of 12
Pollen 5.00 out of 12
Air Quality Not available.
Flu Activity Local Activity
METAR KGYB 182315Z AUTO 17004KT 10SM SCT021 SCT029 BKN050 24/19 A2980 RMK AO2 T02350192

More Conditions Fewer Conditions

10-Day Weather Forecast

Almanac

Astronomy

Apr. 18, 2015 Rise Set
Actual Time
Civil Twilight
Nautical Twilight
Astronomical Twilight
Moon
Length of Visible Light
Length of Day
Tomorrow will be .
, % of the Moon is Illuminated

Today's Extremes

State Highs State Lows

Community

WunderPhotos

Upload Photos

1,814,580 photos uploaded!

WunderBlogs® & News

Nearby

Air Quality

  Air Quality AQ Index Pollutant
Not available.

Snow Depth

Station Depth Elevation

Earthquake Activity

City Distance Mag. Time & Date
Minimum magnitude displayed is 2.5.

Coastal Water Temperatures

Place Temperature

Stations

Nearby Weather Stations

Station Location Temp. Windchill Dew Point Humidity Wind Precip. Elev Updated Type